Terminal Aerodrome Forecast
Issued by NWS

Home | Current Version | Previous Version | Text Only | Print | Product List | Glossary On
Versions: 1 2 3 4 5 6 7 8 9 10 11 12 13 14 15 16 17 18
000
FTUS46 KSEW 232300
TAFBFI
TAF
KBFI 232322Z 2400/2424 16008KT P6SM -RA SCT020 OVC070
      TEMPO 2400/2404 5SM -RA SCT012 BKN020 OVC050
     FM240500 17007G15KT P6SM VCSH SCT020 OVC050
     FM241100 16006G16KT P6SM VCSH OVC020
     FM242100 18007KT P6SM SCT030 OVC050=

USA.gov is the U.S. government's official web portal to all federal, state and local government web resources and services.